หน้าหลัก
METAR-TAF:

METAR-TAF

ท่าอากาศยาน :

Kristiansand, นอร์เวย์

ละติจูด: 58-12N, ลองจิจูด: 008-05E, ความสูง: 1 ม.

การสังเกตสภาพอากาศปัจจุบัน

รายงานได้ทำขึ้นเมื่อ 30 นาทีที่แล้ว ณ เวลา 00:50 UTC
ลม 4 นอตจากตะวันออกเฉียงเหนือ
อุณหภูมิ 13°C
ความชื้น 88%
ความกดอากาศ 1014 hPa
ทัศนวิสัย 10 กม. หรือมากกว่า

METAR: ENCN 130050Z AUTO 05004KT 9999 BKN150/// 13/11 Q1014

เวลา: 03:20 (01:20 UTC)

การพยากรณ์

รายงานได้ทำขึ้นเมื่อ 11 ชั่วโมงและ 20 นาทีที่แล้ว ณ เวลา 14:00 UTC
การพยากรณ์มีผลตั้งแต่วันที่ 12 ณ เวลา 15 UTC จนถึงวันที่ 12 ณ เวลา 22 UTC
ลม 8 นอตจากตะวันออก/ตะวันออกเฉียงใต้
ทัศนวิสัย 10 กม. หรือมากกว่า
มีเมฆน้อยที่ความสูง 2500 ฟุต
มีเมฆเป็นส่วนมากเว้นเป็นระยะที่ความสูง 4000 ฟุต

TAF: ENCN 121400Z 1215/1222 11008KT 9999 FEW025 BKN040

สังเกตการณ์สภาพอากาศและพยากรณ์อากาศของสนามบินมากกว่า 4000 แห่ง (รายงาน METAR และ TAF).

สถานีที่ดูได้จะแสดงไว้ด้วยจุดสีเหลืองและสีแดงบนแผนที่.

เลื่อนเมาส์ไปเหนือจุดเพื่อดูชื่อสถานี.

แล้วคลิกเพื่อดูสังเกตการณ์และการพยากรณ์สภาพอากาศ.

ในการเปลี่ยนแผนที่: คลิกที่ปุ่มสีเขียวที่มีกากบาทสีดำเพื่อซูมเข้า; ที่ปุ่มสีเขียวที่มีขีดเพื่อซูมออก; หรือที่ลูกศรสีเขียวเพื่อไปยังแผนที่ที่อยู่ติดกัน.


METAR-TAF: